createdAt,value
2018-09-22T09:32:08.263Z,102000.02
2018-09-22T09:34:38.164Z,101997.91
2018-09-22T09:37:07.377Z,102001.09
2018-09-22T09:39:36.863Z,101994.06
2018-09-22T09:42:05.704Z,101993.95
2018-09-22T09:44:36.146Z,101998.30
2018-09-22T09:47:06.920Z,101984.59
2018-09-22T09:49:36.100Z,101993.98
2018-09-22T09:52:08.201Z,101993.38
2018-09-22T09:54:38.181Z,101994.72
2018-09-22T09:57:08.943Z,101992.58
2018-09-22T09:59:38.998Z,101985.36
2018-09-22T10:02:09.182Z,101985.75
2018-09-22T10:04:38.342Z,101982.23
2018-09-22T10:07:11.463Z,101991.73
2018-09-22T10:09:41.009Z,101988.30
2018-09-22T10:12:10.510Z,101998.42
2018-09-22T10:14:40.845Z,101995.95
2018-09-22T10:17:10.714Z,101990.86
2018-09-22T10:19:43.506Z,101988.47
2018-09-22T10:22:15.330Z,101984.83
2018-09-22T10:24:44.295Z,101978.01
2018-09-22T10:27:14.302Z,101989.14
2018-09-22T10:29:45.299Z,101989.20
2018-09-22T10:32:14.714Z,102007.48
2018-09-22T10:34:44.366Z,101995.73
2018-09-22T10:37:14.736Z,101989.77
2018-09-22T10:39:44.515Z,101988.42
2018-09-22T10:42:13.372Z,101987.95
2018-09-22T10:44:43.238Z,101994.39
2018-09-22T10:47:12.623Z,101999.91
2018-09-22T10:49:43.092Z,101994.53
2018-09-22T10:52:12.810Z,102004.26
2018-09-22T10:54:44.574Z,101987.84
2018-09-22T10:57:14.796Z,101980.54
2018-09-22T10:59:44.979Z,101976.73
2018-09-22T11:02:15.780Z,101973.04
2018-09-22T11:04:45.323Z,101973.22
2018-09-22T11:07:15.653Z,101968.28
2018-09-22T11:09:44.468Z,101973.83
2018-09-22T11:21:31.733Z,101991.62
2018-09-22T11:26:37.839Z,101986.83
2018-09-22T11:29:06.670Z,101979.91
2018-09-22T11:31:37.107Z,101981.33
2018-09-22T11:34:06.574Z,101983.98
2018-09-22T11:36:36.694Z,101979.33
2018-09-22T11:39:08.885Z,101984.70
2018-09-22T11:41:38.178Z,101995.23
2018-09-22T11:44:27.952Z,101999.91
2018-09-22T11:46:57.543Z,101993.30
2018-09-22T11:49:27.954Z,102003.09
2018-09-22T11:52:02.424Z,102000.30
2018-09-22T11:54:36.108Z,102003.28
2018-09-22T11:57:05.592Z,101988.95
2018-09-22T11:59:36.748Z,102004.00
2018-09-22T12:02:05.703Z,102005.02
2018-09-22T12:04:38.383Z,102013.97
2018-09-22T12:07:08.250Z,102012.73
2018-09-22T12:09:38.162Z,102015.20
2018-09-22T12:12:11.972Z,102017.82
2018-09-22T12:14:42.128Z,102023.95
2018-09-22T12:17:11.322Z,102017.65
2018-09-22T12:19:40.515Z,102020.28
2018-09-22T12:22:11.152Z,102015.40
2018-09-22T12:24:40.783Z,102014.71
2018-09-22T12:27:10.280Z,102001.91
2018-09-22T12:29:43.315Z,102011.50
2018-09-22T12:32:18.798Z,102015.07
2018-09-22T12:34:48.344Z,102003.75
2018-09-22T12:37:17.070Z,101993.92
2018-09-22T12:39:45.754Z,102018.47
2018-09-22T12:42:17.866Z,102013.77
2018-09-22T12:44:47.615Z,102031.92
2018-09-22T12:47:16.874Z,102020.61
2018-09-22T12:50:01.084Z,102024.34
2018-09-22T12:52:39.028Z,102030.25
2018-09-22T12:55:08.332Z,102039.25
2018-09-22T12:57:38.630Z,102040.27
2018-09-22T13:00:08.160Z,102036.19
2018-09-22T13:02:37.992Z,102050.33
2018-09-22T13:05:07.820Z,102029.66
2018-09-22T13:07:38.053Z,102036.38
2018-09-22T13:10:09.569Z,102053.21
2018-09-22T13:12:49.442Z,102061.44
2018-09-22T13:15:24.350Z,102060.30
2018-09-22T13:17:55.486Z,102054.38
2018-09-22T13:20:25.291Z,102051.95
2018-09-22T13:22:55.934Z,102046.17
2018-09-22T13:25:24.514Z,102035.20
2018-09-22T13:27:53.958Z,102022.66
2018-09-22T13:30:24.222Z,102019.34
2018-09-22T20:14:03.905Z,101884.52
2018-09-22T20:16:33.454Z,101875.38
2018-09-22T20:19:02.648Z,101870.22
2018-09-22T20:21:32.310Z,101868.55
2018-09-22T20:24:03.033Z,101867.87
2018-09-22T20:26:32.734Z,101872.52
2018-09-22T20:29:02.306Z,101870.86
2018-09-22T20:31:33.825Z,101871.20
2018-09-22T20:34:06.519Z,101866.20
2018-09-22T21:34:09.320Z,101796.77
2018-09-22T21:36:38.113Z,101786.47
2018-09-22T21:39:15.912Z,101791.95
